sensor_id;sensor_type;location;lat;lon;timestamp;pressure;altitude;pressure_sealevel;temperature;humidity
21956;BME280;11142;49.930;8.606;2022-07-10T00:01:33;100845.97;;;15.87;94.00
21956;BME280;11142;49.930;8.606;2022-07-10T00:04:02;100850.50;;;15.85;93.95
21956;BME280;11142;49.930;8.606;2022-07-10T00:06:30;100844.41;;;15.85;93.78
21956;BME280;11142;49.930;8.606;2022-07-10T00:08:59;100845.84;;;15.89;93.33
21956;BME280;11142;49.930;8.606;2022-07-10T00:11:27;100844.34;;;15.98;92.92
21956;BME280;11142;49.930;8.606;2022-07-10T00:13:56;100847.59;;;16.12;92.22
21956;BME280;11142;49.930;8.606;2022-07-10T00:16:27;100838.22;;;16.21;91.69
21956;BME280;11142;49.930;8.606;2022-07-10T00:18:58;100830.88;;;16.26;90.58
21956;BME280;11142;49.930;8.606;2022-07-10T00:21:30;100842.97;;;16.16;90.79
21956;BME280;11142;49.930;8.606;2022-07-10T00:23:59;100848.00;;;15.95;91.95
21956;BME280;11142;49.930;8.606;2022-07-10T00:26:27;100845.97;;;15.87;92.19
21956;BME280;11142;49.930;8.606;2022-07-10T00:28:56;100850.66;;;15.71;93.35
21956;BME280;11142;49.930;8.606;2022-07-10T00:31:26;100847.19;;;15.71;93.54
21956;BME280;11142;49.930;8.606;2022-07-10T00:33:54;100856.59;;;15.73;93.23
21956;BME280;11142;49.930;8.606;2022-07-10T00:36:28;100856.94;;;15.69;93.23
21956;BME280;11142;49.930;8.606;2022-07-10T00:38:56;100855.81;;;15.60;93.73
21956;BME280;11142;49.930;8.606;2022-07-10T00:41:24;100860.88;;;15.51;94.92
21956;BME280;11142;49.930;8.606;2022-07-10T00:44:00;100863.91;;;15.32;97.16
21956;BME280;11142;49.930;8.606;2022-07-10T00:46:29;100858.66;;;15.44;96.29
21956;BME280;11142;49.930;8.606;2022-07-10T00:48:58;100862.66;;;15.50;96.32
21956;BME280;11142;49.930;8.606;2022-07-10T00:51:30;100861.13;;;15.22;97.54
21956;BME280;11142;49.930;8.606;2022-07-10T00:54:03;100862.53;;;15.03;98.72
21956;BME280;11142;49.930;8.606;2022-07-10T00:56:35;100863.97;;;14.94;99.73
21956;BME280;11142;49.930;8.606;2022-07-10T00:59:05;100867.34;;;14.83;100.00
21956;BME280;11142;49.930;8.606;2022-07-10T01:01:34;100874.66;;;14.78;100.00
21956;BME280;11142;49.930;8.606;2022-07-10T01:04:03;100866.31;;;14.73;100.00
21956;BME280;11142;49.930;8.606;2022-07-10T01:06:34;100867.97;;;14.74;100.00
21956;BME280;11142;49.930;8.606;2022-07-10T01:09:06;100858.47;;;14.73;100.00
21956;BME280;11142;49.930;8.606;2022-07-10T01:11:37;100870.97;;;14.68;99.99
21956;BME280;11142;49.930;8.606;2022-07-10T01:14:07;100860.75;;;14.65;99.08
21956;BME280;11142;49.930;8.606;2022-07-10T01:16:37;100858.47;;;14.61;98.79
21956;BME280;11142;49.930;8.606;2022-07-10T01:19:07;100861.50;;;14.67;98.44
21956;BME280;11142;49.930;8.606;2022-07-10T01:21:37;100865.16;;;14.65;98.20
21956;BME280;11142;49.930;8.606;2022-07-10T01:24:09;100861.28;;;14.70;98.08
21956;BME280;11142;49.930;8.606;2022-07-10T01:26:38;100870.25;;;14.92;96.62
21956;BME280;11142;49.930;8.606;2022-07-10T01:29:10;100862.63;;;15.01;96.01
21956;BME280;11142;49.930;8.606;2022-07-10T01:31:42;100856.03;;;15.08;95.14
21956;BME280;11142;49.930;8.606;2022-07-10T01:34:12;100859.91;;;15.03;94.99
21956;BME280;11142;49.930;8.606;2022-07-10T01:36:42;100858.97;;;14.91;95.80
21956;BME280;11142;49.930;8.606;2022-07-10T01:39:11;100865.03;;;14.66;97.42
21956;BME280;11142;49.930;8.606;2022-07-10T01:41:40;100873.09;;;14.76;97.37
21956;BME280;11142;49.930;8.606;2022-07-10T01:44:12;100872.16;;;14.77;97.18
21956;BME280;11142;49.930;8.606;2022-07-10T01:46:45;100870.91;;;14.82;96.60
21956;BME280;11142;49.930;8.606;2022-07-10T01:49:15;100873.50;;;14.82;96.10
21956;BME280;11142;49.930;8.606;2022-07-10T01:51:48;100881.84;;;14.87;96.13
21956;BME280;11142;49.930;8.606;2022-07-10T01:54:16;100878.00;;;14.93;96.49
21956;BME280;11142;49.930;8.606;2022-07-10T01:56:45;100883.03;;;14.96;95.93
21956;BME280;11142;49.930;8.606;2022-07-10T01:59:19;100872.13;;;15.02;95.29
21956;BME280;11142;49.930;8.606;2022-07-10T02:01:50;100878.22;;;15.03;95.49
21956;BME280;11142;49.930;8.606;2022-07-10T02:04:18;100882.59;;;14.89;95.50
21956;BME280;11142;49.930;8.606;2022-07-10T02:07:06;100876.34;;;14.79;96.29
21956;BME280;11142;49.930;8.606;2022-07-10T02:09:34;100876.75;;;14.73;96.50
21956;BME280;11142;49.930;8.606;2022-07-10T02:12:03;100872.38;;;14.61;97.03
21956;BME280;11142;49.930;8.606;2022-07-10T02:14:33;100871.72;;;14.58;97.26
21956;BME280;11142;49.930;8.606;2022-07-10T02:17:02;100874.81;;;14.38;98.36
21956;BME280;11142;49.930;8.606;2022-07-10T02:19:34;100867.31;;;14.33;99.09
21956;BME280;11142;49.930;8.606;2022-07-10T02:22:04;100870.09;;;14.30;99.15
21956;BME280;11142;49.930;8.606;2022-07-10T02:24:36;100866.66;;;14.29;98.76
21956;BME280;11142;49.930;8.606;2022-07-10T02:27:05;100869.53;;;14.25;98.77
21956;BME280;11142;49.930;8.606;2022-07-10T02:29:33;100860.75;;;14.13;98.64
21956;BME280;11142;49.930;8.606;2022-07-10T02:32:02;100863.25;;;14.15;98.58
21956;BME280;11142;49.930;8.606;2022-07-10T02:34:33;100868.19;;;14.19;98.47
21956;BME280;11142;49.930;8.606;2022-07-10T02:37:02;100873.13;;;14.36;97.87
21956;BME280;11142;49.930;8.606;2022-07-10T02:39:30;100873.69;;;14.42;96.77
21956;BME280;11142;49.930;8.606;2022-07-10T02:42:00;100868.78;;;14.62;96.10
21956;BME280;11142;49.930;8.606;2022-07-10T02:44:31;100873.72;;;14.92;93.78
21956;BME280;11142;49.930;8.606;2022-07-10T02:47:00;100882.59;;;15.02;93.07
21956;BME280;11142;49.930;8.606;2022-07-10T02:49:28;100877.38;;;14.77;92.66
21956;BME280;11142;49.930;8.606;2022-07-10T02:51:56;100883.28;;;14.41;94.82
21956;BME280;11142;49.930;8.606;2022-07-10T02:54:25;100877.47;;;14.50;95.10
21956;BME280;11142;49.930;8.606;2022-07-10T02:56:53;100892.50;;;14.59;94.11
21956;BME280;11142;49.930;8.606;2022-07-10T02:59:23;100896.56;;;14.51;94.09
21956;BME280;11142;49.930;8.606;2022-07-10T03:01:51;100892.41;;;14.48;94.30
21956;BME280;11142;49.930;8.606;2022-07-10T03:04:19;100891.16;;;14.66;93.61
21956;BME280;11142;49.930;8.606;2022-07-10T03:06:47;100886.16;;;14.88;92.29
21956;BME280;11142;49.930;8.606;2022-07-10T03:09:16;100880.81;;;15.15;90.90
21956;BME280;11142;49.930;8.606;2022-07-10T03:11:44;100890.81;;;15.34;88.99
21956;BME280;11142;49.930;8.606;2022-07-10T03:14:12;100896.16;;;15.20;89.07
21956;BME280;11142;49.930;8.606;2022-07-10T03:16:42;100899.22;;;15.01;90.01
21956;BME280;11142;49.930;8.606;2022-07-10T03:19:10;100896.72;;;14.87;90.29
21956;BME280;11142;49.930;8.606;2022-07-10T03:21:40;100893.56;;;14.69;91.18
21956;BME280;11142;49.930;8.606;2022-07-10T03:24:09;100892.63;;;14.58;91.99
21956;BME280;11142;49.930;8.606;2022-07-10T03:26:37;100897.22;;;14.54;91.64
21956;BME280;11142;49.930;8.606;2022-07-10T03:29:05;100888.34;;;14.69;91.44
21956;BME280;11142;49.930;8.606;2022-07-10T03:31:34;100892.09;;;14.65;91.50
21956;BME280;11142;49.930;8.606;2022-07-10T03:34:03;100890.03;;;14.70;90.96
21956;BME280;11142;49.930;8.606;2022-07-10T03:36:31;100893.06;;;14.64;90.56
21956;BME280;11142;49.930;8.606;2022-07-10T03:38:59;100898.06;;;14.67;90.71
21956;BME280;11142;49.930;8.606;2022-07-10T03:41:28;100901.00;;;14.75;90.59
21956;BME280;11142;49.930;8.606;2022-07-10T03:43:56;100898.72;;;14.96;89.56
21956;BME280;11142;49.930;8.606;2022-07-10T03:46:24;100901.75;;;14.77;89.70
21956;BME280;11142;49.930;8.606;2022-07-10T03:48:53;100903.91;;;14.58;90.54
21956;BME280;11142;49.930;8.606;2022-07-10T03:51:22;100905.47;;;14.48;91.04
21956;BME280;11142;49.930;8.606;2022-07-10T03:53:50;100897.41;;;14.51;91.41
21956;BME280;11142;49.930;8.606;2022-07-10T03:56:18;100904.31;;;14.40;92.26
21956;BME280;11142;49.930;8.606;2022-07-10T03:59:00;100903.00;;;14.32;92.33
21956;BME280;11142;49.930;8.606;2022-07-10T04:01:29;100909.63;;;14.38;92.59
21956;BME280;11142;49.930;8.606;2022-07-10T04:03:57;100916.72;;;14.36;92.13
21956;BME280;11142;49.930;8.606;2022-07-10T04:06:27;100906.38;;;14.47;91.70
21956;BME280;11142;49.930;8.606;2022-07-10T04:08:56;100900.28;;;14.34;91.24
21956;BME280;11142;49.930;8.606;2022-07-10T04:11:24;100899.50;;;14.19;90.73
21956;BME280;11142;49.930;8.606;2022-07-10T04:13:52;100901.88;;;14.10;91.30
21956;BME280;11142;49.930;8.606;2022-07-10T04:16:20;100897.19;;;14.15;92.25
21956;BME280;11142;49.930;8.606;2022-07-10T04:18:50;100902.16;;;14.05;92.30
21956;BME280;11142;49.930;8.606;2022-07-10T04:21:21;100901.25;;;14.06;92.81
21956;BME280;11142;49.930;8.606;2022-07-10T04:23:50;100909.91;;;14.07;91.62
21956;BME280;11142;49.930;8.606;2022-07-10T04:26:18;100909.88;;;13.94;92.01
21956;BME280;11142;49.930;8.606;2022-07-10T04:28:46;100906.13;;;13.98;92.04
21956;BME280;11142;49.930;8.606;2022-07-10T04:31:15;100910.53;;;13.83;92.01
21956;BME280;11142;49.930;8.606;2022-07-10T04:33:43;100912.16;;;13.72;92.65
21956;BME280;11142;49.930;8.606;2022-07-10T04:36:12;100911.97;;;13.61;92.18
21956;BME280;11142;49.930;8.606;2022-07-10T04:38:40;100913.13;;;13.57;92.61
21956;BME280;11142;49.930;8.606;2022-07-10T04:41:09;100917.25;;;13.47;93.04
21956;BME280;11142;49.930;8.606;2022-07-10T04:43:38;100928.69;;;13.44;93.44
21956;BME280;11142;49.930;8.606;2022-07-10T04:46:07;100923.75;;;13.40;93.19
21956;BME280;11142;49.930;8.606;2022-07-10T04:48:35;100927.03;;;13.43;91.84
21956;BME280;11142;49.930;8.606;2022-07-10T04:51:04;100936.16;;;13.36;91.22
21956;BME280;11142;49.930;8.606;2022-07-10T04:53:32;100927.47;;;13.36;90.73
21956;BME280;11142;49.930;8.606;2022-07-10T04:56:01;100930.53;;;13.42;90.25
21956;BME280;11142;49.930;8.606;2022-07-10T04:58:31;100934.91;;;13.42;89.67
21956;BME280;11142;49.930;8.606;2022-07-10T05:00:59;100936.78;;;13.40;89.14
21956;BME280;11142;49.930;8.606;2022-07-10T05:03:28;100930.66;;;13.41;89.08
21956;BME280;11142;49.930;8.606;2022-07-10T05:05:56;100941.81;;;13.43;88.92
21956;BME280;11142;49.930;8.606;2022-07-10T05:08:24;100948.06;;;13.40;88.98
21956;BME280;11142;49.930;8.606;2022-07-10T05:10:52;100948.25;;;13.37;88.84
21956;BME280;11142;49.930;8.606;2022-07-10T05:13:20;100953.75;;;13.47;88.43
21956;BME280;11142;49.930;8.606;2022-07-10T05:15:50;100954.75;;;13.58;87.87
21956;BME280;11142;49.930;8.606;2022-07-10T05:18:18;100951.94;;;13.61;87.29
21956;BME280;11142;49.930;8.606;2022-07-10T05:20:47;100940.97;;;13.56;87.50
21956;BME280;11142;49.930;8.606;2022-07-10T05:23:16;100954.09;;;13.69;86.68
21956;BME280;11142;49.930;8.606;2022-07-10T05:25:44;100960.31;;;13.80;86.51
21956;BME280;11142;49.930;8.606;2022-07-10T05:28:12;100959.38;;;13.81;85.61
21956;BME280;11142;49.930;8.606;2022-07-10T05:30:41;100953.78;;;13.73;86.09
21956;BME280;11142;49.930;8.606;2022-07-10T05:33:11;100944.31;;;13.58;86.72
21956;BME280;11142;49.930;8.606;2022-07-10T05:35:40;100953.25;;;13.68;86.45
21956;BME280;11142;49.930;8.606;2022-07-10T05:38:08;100946.53;;;13.64;85.81
21956;BME280;11142;49.930;8.606;2022-07-10T05:40:37;100946.34;;;13.81;85.14
21956;BME280;11142;49.930;8.606;2022-07-10T05:43:05;100941.63;;;14.01;84.29
21956;BME280;11142;49.930;8.606;2022-07-10T05:45:33;100946.72;;;14.02;83.07
21956;BME280;11142;49.930;8.606;2022-07-10T05:48:01;100948.75;;;14.11;83.15
21956;BME280;11142;49.930;8.606;2022-07-10T05:50:31;100959.69;;;14.57;81.66
21956;BME280;11142;49.930;8.606;2022-07-10T05:52:59;100962.50;;;15.06;78.24
21956;BME280;11142;49.930;8.606;2022-07-10T05:55:28;100973.88;;;15.18;75.36
21956;BME280;11142;49.930;8.606;2022-07-10T05:57:56;100976.47;;;15.43;75.08
21956;BME280;11142;49.930;8.606;2022-07-10T06:00:25;100969.13;;;15.73;72.19
21956;BME280;11142;49.930;8.606;2022-07-10T06:02:53;100977.31;;;15.43;71.74
21956;BME280;11142;49.930;8.606;2022-07-10T06:05:22;100976.28;;;15.59;71.51
21956;BME280;11142;49.930;8.606;2022-07-10T06:07:51;100972.13;;;15.56;70.40
21956;BME280;11142;49.930;8.606;2022-07-10T06:10:20;100978.22;;;15.80;68.17
21956;BME280;11142;49.930;8.606;2022-07-10T06:12:48;100972.91;;;16.06;67.92
21956;BME280;11142;49.930;8.606;2022-07-10T06:15:16;100987.41;;;16.22;64.65
21956;BME280;11142;49.930;8.606;2022-07-10T06:17:45;100967.63;;;16.18;64.63
21956;BME280;11142;49.930;8.606;2022-07-10T06:20:14;100973.44;;;16.11;64.68
21956;BME280;11142;49.930;8.606;2022-07-10T06:22:42;100970.81;;;16.34;64.80
21956;BME280;11142;49.930;8.606;2022-07-10T06:25:12;100970.97;;;15.97;64.33
21956;BME280;11142;49.930;8.606;2022-07-10T06:27:40;100971.63;;;16.11;65.58
21956;BME280;11142;49.930;8.606;2022-07-10T06:30:09;100975.81;;;16.37;66.11
21956;BME280;11142;49.930;8.606;2022-07-10T06:32:38;100989.69;;;16.27;64.29
21956;BME280;11142;49.930;8.606;2022-07-10T06:35:07;100980.00;;;16.40;64.35
21956;BME280;11142;49.930;8.606;2022-07-10T06:37:36;100993.16;;;16.51;63.67
21956;BME280;11142;49.930;8.606;2022-07-10T06:40:13;100977.44;;;16.51;64.07
21956;BME280;11142;49.930;8.606;2022-07-10T06:42:42;100974.56;;;16.78;62.13
21956;BME280;11142;49.930;8.606;2022-07-10T06:45:13;100979.16;;;16.98;61.73
21956;BME280;11142;49.930;8.606;2022-07-10T06:47:41;100978.34;;;17.09;60.46
21956;BME280;11142;49.930;8.606;2022-07-10T06:50:26;100980.50;;;17.15;59.38
21956;BME280;11142;49.930;8.606;2022-07-10T06:52:56;100969.03;;;17.16;58.67
21956;BME280;11142;49.930;8.606;2022-07-10T06:55:27;100974.69;;;17.56;58.12
21956;BME280;11142;49.930;8.606;2022-07-10T06:57:56;100964.78;;;17.81;58.00
21956;BME280;11142;49.930;8.606;2022-07-10T07:00:25;100974.41;;;17.47;56.96
21956;BME280;11142;49.930;8.606;2022-07-10T07:02:54;100972.50;;;17.05;56.96
21956;BME280;11142;49.930;8.606;2022-07-10T07:05:23;100972.69;;;17.59;55.96
21956;BME280;11142;49.930;8.606;2022-07-10T07:07:53;100966.66;;;17.90;53.73
21956;BME280;11142;49.930;8.606;2022-07-10T07:19:36;100966.91;;;17.21;55.10
21956;BME280;11142;49.930;8.606;2022-07-10T07:22:23;100964.22;;;17.56;55.33
21956;BME280;11142;49.930;8.606;2022-07-10T07:25:10;100961.81;;;18.18;51.01
21956;BME280;11142;49.930;8.606;2022-07-10T07:27:42;100972.28;;;17.97;48.24
21956;BME280;11142;49.930;8.606;2022-07-10T07:30:11;100957.09;;;18.00;47.52
21956;BME280;11142;49.930;8.606;2022-07-10T07:32:45;100960.63;;;18.74;46.38
21956;BME280;11142;49.930;8.606;2022-07-10T07:35:16;100976.50;;;20.14;41.65
21956;BME280;11142;49.930;8.606;2022-07-10T07:37:46;100979.34;;;19.83;41.70
21956;BME280;11142;49.930;8.606;2022-07-10T07:40:18;100968.03;;;18.80;43.62
21956;BME280;11142;49.930;8.606;2022-07-10T07:42:50;100968.75;;;20.13;42.16
21956;BME280;11142;49.930;8.606;2022-07-10T07:45:20;100983.03;;;20.01;41.46
21956;BME280;11142;49.930;8.606;2022-07-10T07:56:38;100976.78;;;19.52;42.65
21956;BME280;11142;49.930;8.606;2022-07-10T07:59:07;100976.16;;;20.67;41.61
21956;BME280;11142;49.930;8.606;2022-07-10T08:01:35;100977.09;;;19.69;42.14
21956;BME280;11142;49.930;8.606;2022-07-10T08:04:04;100970.41;;;19.55;42.12
21956;BME280;11142;49.930;8.606;2022-07-10T08:06:36;100973.75;;;19.36;42.67
21956;BME280;11142;49.930;8.606;2022-07-10T08:09:04;100973.53;;;20.67;41.08
21956;BME280;11142;49.930;8.606;2022-07-10T08:11:33;100976.63;;;21.92;38.16
21956;BME280;11142;49.930;8.606;2022-07-10T08:14:03;100985.91;;;20.07;41.46
21956;BME280;11142;49.930;8.606;2022-07-10T08:16:31;100982.56;;;19.26;42.74
21956;BME280;11142;49.930;8.606;2022-07-10T08:19:00;100975.81;;;19.33;43.29
21956;BME280;11142;49.930;8.606;2022-07-10T08:21:28;100976.88;;;19.21;43.09
21956;BME280;11142;49.930;8.606;2022-07-10T08:23:58;100981.38;;;18.68;44.40
21956;BME280;11142;49.930;8.606;2022-07-10T08:26:26;100969.53;;;18.30;45.05
21956;BME280;11142;49.930;8.606;2022-07-10T08:28:55;100962.38;;;18.32;46.04
21956;BME280;11142;49.930;8.606;2022-07-10T08:31:25;100963.53;;;19.73;42.65
21956;BME280;11142;49.930;8.606;2022-07-10T08:33:53;100957.59;;;18.90;43.86
21956;BME280;11142;49.930;8.606;2022-07-10T08:36:21;100955.22;;;21.22;39.78
21956;BME280;11142;49.930;8.606;2022-07-10T08:39:07;100952.44;;;20.57;40.83
21956;BME280;11142;49.930;8.606;2022-07-10T08:41:36;100966.09;;;19.94;41.72
21956;BME280;11142;49.930;8.606;2022-07-10T08:44:04;100958.78;;;20.55;42.27
21956;BME280;11142;49.930;8.606;2022-07-10T08:46:35;100958.69;;;21.22;42.09
21956;BME280;11142;49.930;8.606;2022-07-10T08:49:08;100963.28;;;21.84;41.15
21956;BME280;11142;49.930;8.606;2022-07-10T08:51:40;100959.47;;;20.86;41.71
21956;BME280;11142;49.930;8.606;2022-07-10T08:54:10;100963.53;;;19.83;42.22
21956;BME280;11142;49.930;8.606;2022-07-10T08:56:48;100958.72;;;18.55;44.88
21956;BME280;11142;49.930;8.606;2022-07-10T08:59:18;100956.81;;;18.58;45.30
21956;BME280;11142;49.930;8.606;2022-07-10T09:01:56;100965.47;;;18.69;44.71
21956;BME280;11142;49.930;8.606;2022-07-10T09:04:26;100960.63;;;20.35;41.14
21956;BME280;11142;49.930;8.606;2022-07-10T09:06:55;100965.38;;;21.07;39.60
21956;BME280;11142;49.930;8.606;2022-07-10T09:09:23;100971.19;;;19.95;42.10
21956;BME280;11142;49.930;8.606;2022-07-10T09:11:55;100959.59;;;19.58;42.16
21956;BME280;11142;49.930;8.606;2022-07-10T09:14:25;100963.19;;;19.06;43.79
21956;BME280;11142;49.930;8.606;2022-07-10T09:17:01;100970.28;;;19.66;42.14
21956;BME280;11142;49.930;8.606;2022-07-10T09:19:30;100971.09;;;20.06;41.81
21956;BME280;11142;49.930;8.606;2022-07-10T09:22:03;100983.56;;;20.04;41.92
21956;BME280;11142;49.930;8.606;2022-07-10T09:24:35;100961.69;;;20.33;41.47
21956;BME280;11142;49.930;8.606;2022-07-10T09:27:04;100961.47;;;20.36;41.55
21956;BME280;11142;49.930;8.606;2022-07-10T09:29:44;100959.50;;;20.57;41.37
21956;BME280;11142;49.930;8.606;2022-07-10T09:32:15;100952.44;;;21.23;39.70
21956;BME280;11142;49.930;8.606;2022-07-10T09:34:44;100958.66;;;20.47;41.06
21956;BME280;11142;49.930;8.606;2022-07-10T09:37:20;100962.09;;;20.19;41.91
21956;BME280;11142;49.930;8.606;2022-07-10T09:39:55;100966.81;;;19.56;45.02
21956;BME280;11142;49.930;8.606;2022-07-10T09:42:29;100959.19;;;19.32;45.12
21956;BME280;11142;49.930;8.606;2022-07-10T09:45:15;100960.47;;;19.68;44.24
21956;BME280;11142;49.930;8.606;2022-07-10T09:47:47;100964.31;;;20.04;44.24
21956;BME280;11142;49.930;8.606;2022-07-10T09:50:23;100963.50;;;20.23;42.16
21956;BME280;11142;49.930;8.606;2022-07-10T09:52:53;100955.34;;;20.45;42.50
21956;BME280;11142;49.930;8.606;2022-07-10T09:55:22;100954.34;;;20.65;43.15
21956;BME280;11142;49.930;8.606;2022-07-10T09:57:56;100940.75;;;20.41;42.93
21956;BME280;11142;49.930;8.606;2022-07-10T10:00:25;100953.34;;;20.85;40.82
21956;BME280;11142;49.930;8.606;2022-07-10T10:02:59;100955.78;;;21.15;40.71
21956;BME280;11142;49.930;8.606;2022-07-10T10:05:36;100950.69;;;21.41;40.42
21956;BME280;11142;49.930;8.606;2022-07-10T10:08:09;100956.50;;;22.44;37.98
21956;BME280;11142;49.930;8.606;2022-07-10T10:10:43;100952.06;;;22.88;37.45
21956;BME280;11142;49.930;8.606;2022-07-10T10:13:16;100944.69;;;22.03;39.82
21956;BME280;11142;49.930;8.606;2022-07-10T10:15:46;100944.22;;;20.70;42.27
21956;BME280;11142;49.930;8.606;2022-07-10T10:18:18;100936.63;;;21.04;41.18
21956;BME280;11142;49.930;8.606;2022-07-10T10:20:49;100932.09;;;21.97;39.60
21956;BME280;11142;49.930;8.606;2022-07-10T10:23:18;100927.56;;;21.26;40.84
21956;BME280;11142;49.930;8.606;2022-07-10T10:25:48;100925.75;;;21.53;39.70
21956;BME280;11142;49.930;8.606;2022-07-10T10:28:17;100922.41;;;21.34;39.04
21956;BME280;11142;49.930;8.606;2022-07-10T10:30:52;100923.47;;;22.31;38.23
21956;BME280;11142;49.930;8.606;2022-07-10T10:33:46;100922.31;;;22.94;36.71
21956;BME280;11142;49.930;8.606;2022-07-10T10:36:45;100931.19;;;23.95;35.61
21956;BME280;11142;49.930;8.606;2022-07-10T10:39:18;100911.56;;;23.63;34.83
21956;BME280;11142;49.930;8.606;2022-07-10T10:41:49;100913.81;;;23.08;35.64
21956;BME280;11142;49.930;8.606;2022-07-10T10:44:29;100920.50;;;22.51;37.23
21956;BME280;11142;49.930;8.606;2022-07-10T10:47:05;100918.19;;;22.13;39.09
21956;BME280;11142;49.930;8.606;2022-07-10T10:49:52;100908.94;;;21.54;40.52
21956;BME280;11142;49.930;8.606;2022-07-10T10:52:24;100903.31;;;20.93;41.87
21956;BME280;11142;49.930;8.606;2022-07-10T10:55:04;100907.84;;;21.20;41.86
21956;BME280;11142;49.930;8.606;2022-07-10T10:57:39;100899.78;;;19.98;44.79
21956;BME280;11142;49.930;8.606;2022-07-10T11:00:13;100901.97;;;19.74;46.21
21956;BME280;11142;49.930;8.606;2022-07-10T11:02:43;100904.78;;;20.21;44.64
21956;BME280;11142;49.930;8.606;2022-07-10T11:05:41;100910.34;;;20.56;43.63
21956;BME280;11142;49.930;8.606;2022-07-10T11:08:10;100906.72;;;20.66;43.58
21956;BME280;11142;49.930;8.606;2022-07-10T11:10:41;100910.75;;;21.54;41.12
21956;BME280;11142;49.930;8.606;2022-07-10T11:13:15;100914.13;;;20.34;43.64
21956;BME280;11142;49.930;8.606;2022-07-10T11:15:44;100906.75;;;21.03;43.08
21956;BME280;11142;49.930;8.606;2022-07-10T11:18:15;100913.31;;;20.90;43.59
21956;BME280;11142;49.930;8.606;2022-07-10T11:20:46;100912.38;;;21.82;40.94
21956;BME280;11142;49.930;8.606;2022-07-10T11:23:38;100911.53;;;21.64;41.79
21956;BME280;11142;49.930;8.606;2022-07-10T11:26:13;100906.44;;;20.79;43.55
21956;BME280;11142;49.930;8.606;2022-07-10T11:28:50;100898.75;;;20.95;42.75
21956;BME280;11142;49.930;8.606;2022-07-10T11:31:19;100906.28;;;21.82;40.94
21956;BME280;11142;49.930;8.606;2022-07-10T11:33:48;100904.66;;;22.16;40.33
21956;BME280;11142;49.930;8.606;2022-07-10T11:36:20;100903.13;;;22.92;38.88
21956;BME280;11142;49.930;8.606;2022-07-10T11:38:56;100890.66;;;24.51;35.99
21956;BME280;11142;49.930;8.606;2022-07-10T11:41:26;100897.97;;;27.10;30.70
21956;BME280;11142;49.930;8.606;2022-07-10T11:43:56;100898.81;;;28.39;30.08
21956;BME280;11142;49.930;8.606;2022-07-10T11:46:26;100907.38;;;27.56;29.78
21956;BME280;11142;49.930;8.606;2022-07-10T11:48:55;100901.94;;;29.26;27.78
21956;BME280;11142;49.930;8.606;2022-07-10T11:51:27;100897.69;;;30.64;25.72
21956;BME280;11142;49.930;8.606;2022-07-10T11:53:57;100884.03;;;28.15;29.57
21956;BME280;11142;49.930;8.606;2022-07-10T11:56:26;100882.28;;;28.78;27.65
21956;BME280;11142;49.930;8.606;2022-07-10T11:58:59;100875.47;;;26.00;31.64
21956;BME280;11142;49.930;8.606;2022-07-10T12:01:29;100876.59;;;26.66;31.72
21956;BME280;11142;49.930;8.606;2022-07-10T12:04:01;100882.72;;;27.69;29.77
21956;BME280;11142;49.930;8.606;2022-07-10T12:06:32;100870.16;;;28.26;29.69
21956;BME280;11142;49.930;8.606;2022-07-10T12:09:02;100864.13;;;24.18;34.39
21956;BME280;11142;49.930;8.606;2022-07-10T12:11:31;100862.16;;;24.28;34.64
21956;BME280;11142;49.930;8.606;2022-07-10T12:14:13;100870.69;;;22.47;39.05
21956;BME280;11142;49.930;8.606;2022-07-10T12:16:43;100872.47;;;22.90;38.75
21956;BME280;11142;49.930;8.606;2022-07-10T12:19:13;100866.00;;;21.97;40.60
21956;BME280;11142;49.930;8.606;2022-07-10T12:21:45;100868.53;;;23.27;37.89
21956;BME280;11142;49.930;8.606;2022-07-10T12:24:16;100867.47;;;22.17;39.46
21956;BME280;11142;49.930;8.606;2022-07-10T12:26:47;100871.13;;;21.99;39.92
21956;BME280;11142;49.930;8.606;2022-07-10T12:29:20;100871.28;;;21.97;40.86
21956;BME280;11142;49.930;8.606;2022-07-10T12:31:49;100861.19;;;21.65;41.18
21956;BME280;11142;49.930;8.606;2022-07-10T12:34:16;100861.44;;;22.25;40.22
21956;BME280;11142;49.930;8.606;2022-07-10T12:36:47;100862.78;;;23.06;39.00
21956;BME280;11142;49.930;8.606;2022-07-10T12:39:18;100869.22;;;22.52;39.36
21956;BME280;11142;49.930;8.606;2022-07-10T12:41:58;100866.25;;;24.07;36.38
21956;BME280;11142;49.930;8.606;2022-07-10T12:44:37;100862.44;;;23.01;38.21
21956;BME280;11142;49.930;8.606;2022-07-10T12:47:07;100861.56;;;22.23;40.08
21956;BME280;11142;49.930;8.606;2022-07-10T12:49:52;100860.06;;;22.39;39.84
21956;BME280;11142;49.930;8.606;2022-07-10T12:52:31;100858.00;;;23.02;38.41
21956;BME280;11142;49.930;8.606;2022-07-10T12:55:09;100858.19;;;23.42;37.64
21956;BME280;11142;49.930;8.606;2022-07-10T12:57:45;100869.09;;;22.54;39.15
21956;BME280;11142;49.930;8.606;2022-07-10T13:00:15;100853.59;;;22.15;39.28
21956;BME280;11142;49.930;8.606;2022-07-10T13:02:45;100857.34;;;23.08;39.27
21956;BME280;11142;49.930;8.606;2022-07-10T13:05:27;100860.19;;;23.56;37.46
21956;BME280;11142;49.930;8.606;2022-07-10T13:08:08;100858.03;;;22.76;38.73
21956;BME280;11142;49.930;8.606;2022-07-10T13:10:39;100858.56;;;22.01;40.09
21956;BME280;11142;49.930;8.606;2022-07-10T13:13:08;100851.72;;;23.45;37.86
21956;BME280;11142;49.930;8.606;2022-07-10T13:15:36;100847.34;;;24.02;36.37
21956;BME280;11142;49.930;8.606;2022-07-10T13:18:07;100849.09;;;25.68;33.59
21956;BME280;11142;49.930;8.606;2022-07-10T13:20:36;100855.69;;;25.10;34.75
21956;BME280;11142;49.930;8.606;2022-07-10T13:23:05;100853.34;;;24.44;36.19
21956;BME280;11142;49.930;8.606;2022-07-10T13:25:35;100852.88;;;22.74;39.11
21956;BME280;11142;49.930;8.606;2022-07-10T13:28:04;100861.25;;;22.27;39.83